Time;durP1;ratioP1;P1;durP2;ratioP2;P2;SDS_P1;SDS_P2;PMS_P1;PMS_P2;Temp;Humidity;BMP_temperature;BMP_pressure;BME280_temperature;BME280_humidity;BME280_pressure;Samples;Min_cycle;Max_cycle;Signal;HPM_P1;HPM_P2
2023/10/27 00:00:05;;;;;;;;;;;17.20;75.20;;;;;;5094997;28;20000;-70
2023/10/27 00:02:31;;;;;;;;;;;17.20;75.20;;;;;;5094321;28;19916;-69
2023/10/27 00:04:57;;;;;;;;;;;17.20;75.30;;;;;;5095263;28;20006;-70
2023/10/27 00:07:23;;;;;;;;;;;17.20;75.20;;;;;;5095327;28;19923;-70
2023/10/27 00:09:49;;;;;;;;;;;17.30;75.30;;;;;;5094210;28;20331;-70
2023/10/27 00:12:15;;;;;;;;;;;17.30;75.20;;;;;;5093515;28;19927;-70
2023/10/27 00:14:40;;;;;;;;;;;17.30;75.10;;;;;;5095118;28;19994;-70
2023/10/27 00:17:06;;;;;;;;;;;17.30;75.10;;;;;;5093892;28;19984;-70
2023/10/27 00:19:32;;;;;;;;;;;17.30;75.10;;;;;;5093814;28;19915;-70
2023/10/27 00:21:58;;;;;;;;;;;17.30;75.10;;;;;;5094612;28;19993;-69
2023/10/27 00:24:24;;;;;;;;;;;17.40;75.00;;;;;;5095022;28;20300;-70
2023/10/27 00:26:50;;;;;;;;;;;17.40;75.70;;;;;;5094988;28;20018;-69
2023/10/27 00:29:16;;;;;;;;;;;17.40;74.90;;;;;;5094939;28;20011;-70
2023/10/27 00:31:42;;;;;;;;;;;17.30;74.50;;;;;;5094291;28;20316;-70
2023/10/27 00:34:08;;;;;;;;;;;17.40;75.00;;;;;;5092612;28;19947;-70
2023/10/27 00:36:34;;;;;;;;;;;17.40;75.00;;;;;;5094742;28;19920;-70
2023/10/27 00:39:00;;;;;;;;;;;17.40;75.00;;;;;;5093264;28;19923;-70
2023/10/27 00:41:28;;;;;;;;;;;17.40;75.00;;;;;;5094267;28;19920;-70
2023/10/27 00:43:53;;;;;;;;;;;17.40;75.10;;;;;;5093341;28;19962;-70
2023/10/27 00:46:19;;;;;;;;;;;17.40;75.10;;;;;;5093370;28;19955;-70
2023/10/27 00:48:45;;;;;;;;;;;17.30;74.50;;;;;;5093149;28;19958;-69
2023/10/27 00:51:12;;;;;;;;;;;17.40;75.20;;;;;;5094015;28;19920;-70
2023/10/27 00:53:38;;;;;;;;;;;17.30;75.10;;;;;;5093229;28;20365;-70
2023/10/27 00:56:04;;;;;;;;;;;17.30;74.60;;;;;;5094366;28;19936;-70
2023/10/27 00:58:30;;;;;;;;;;;17.30;75.10;;;;;;5092990;28;19958;-70
2023/10/27 01:00:57;;;;;;;;;;;17.30;74.60;;;;;;5092442;28;19920;-69
2023/10/27 01:03:23;;;;;;;;;;;17.30;75.10;;;;;;5092995;28;19912;-69
2023/10/27 01:05:49;;;;;;;;;;;17.30;74.50;;;;;;5094172;28;19920;-69
2023/10/27 01:08:15;;;;;;;;;;;17.40;75.40;;;;;;5092734;28;20097;-69
2023/10/27 01:10:41;;;;;;;;;;;17.40;75.40;;;;;;5092453;28;19974;-70
2023/10/27 01:13:07;;;;;;;;;;;17.30;75.30;;;;;;5075866;28;19926;-70
2023/10/27 01:15:33;;;;;;;;;;;17.40;75.30;;;;;;5093991;28;19934;-70
2023/10/27 01:17:59;;;;;;;;;;;17.30;75.30;;;;;;5093822;28;20002;-70
2023/10/27 01:20:25;;;;;;;;;;;17.40;75.30;;;;;;5091944;28;19973;-70
2023/10/27 01:22:51;;;;;;;;;;;17.40;75.30;;;;;;5092704;28;19920;-70
2023/10/27 01:25:17;;;;;;;;;;;17.40;75.30;;;;;;5092624;28;19919;-70
2023/10/27 01:27:43;;;;;;;;;;;17.40;75.30;;;;;;5092530;28;19920;-70
2023/10/27 01:30:10;;;;;;;;;;;17.40;75.20;;;;;;5093128;28;19926;-70
2023/10/27 01:32:37;;;;;;;;;;;17.40;75.30;;;;;;5092575;28;19941;-70
2023/10/27 01:35:04;;;;;;;;;;;17.40;75.20;;;;;;5092312;28;20288;-70
2023/10/27 01:37:29;;;;;;;;;;;17.30;75.30;;;;;;5093064;28;19920;-69
2023/10/27 01:39:58;;;;;;;;;;;17.40;75.40;;;;;;5093593;28;20335;-70
2023/10/27 01:42:25;;;;;;;;;;;17.40;75.40;;;;;;5091820;28;19927;-70
2023/10/27 01:44:51;;;;;;;;;;;17.40;75.20;;;;;;5092077;28;19912;-70
2023/10/27 01:47:17;;;;;;;;;;;17.30;75.10;;;;;;5075350;28;19931;-70
2023/10/27 01:49:43;;;;;;;;;;;17.40;75.30;;;;;;5093227;28;19912;-70
2023/10/27 01:52:09;;;;;;;;;;;17.40;75.30;;;;;;5092863;28;19936;-70
2023/10/27 01:54:35;;;;;;;;;;;17.40;75.20;;;;;;5092095;28;19916;-70
2023/10/27 01:57:01;;;;;;;;;;;17.40;75.20;;;;;;5092000;28;19920;-70
2023/10/27 01:59:29;;;;;;;;;;;17.40;75.40;;;;;;5091885;28;19912;-70
2023/10/27 02:01:55;;;;;;;;;;;17.40;75.60;;;;;;5092926;28;20373;-70
2023/10/27 02:04:20;;;;;;;;;;;17.40;74.90;;;;;;5092099;28;19942;-69
2023/10/27 02:06:47;;;;;;;;;;;17.40;75.40;;;;;;5091799;28;19927;-69
2023/10/27 02:09:13;;;;;;;;;;;17.40;75.30;;;;;;5074956;28;19930;-69
2023/10/27 02:11:39;;;;;;;;;;;17.40;75.40;;;;;;5092614;28;20402;-70
2023/10/27 02:14:05;;;;;;;;;;;17.40;75.40;;;;;;5093050;28;19912;-69
2023/10/27 02:16:31;;;;;;;;;;;17.40;75.40;;;;;;5091690;28;19920;-70
2023/10/27 02:18:56;;;;;;;;;;;17.40;75.40;;;;;;5093150;28;19912;-70
2023/10/27 02:21:22;;;;;;;;;;;17.40;75.40;;;;;;5090946;28;19991;-70
2023/10/27 02:23:48;;;;;;;;;;;17.40;75.40;;;;;;5092968;28;19912;-70
2023/10/27 02:26:14;;;;;;;;;;;17.40;76.40;;;;;;5091905;28;20010;-70
2023/10/27 02:28:40;;;;;;;;;;;17.40;75.50;;;;;;5093010;28;19959;-70
2023/10/27 02:31:06;;;;;;;;;;;17.40;75.50;;;;;;5074169;28;19931;-70
2023/10/27 02:33:32;;;;;;;;;;;17.40;75.60;;;;;;5091667;28;20417;-70
2023/10/27 02:35:57;;;;;;;;;;;17.40;75.60;;;;;;5092826;28;19966;-70
2023/10/27 02:38:23;;;;;;;;;;;17.40;75.80;;;;;;5092594;28;19920;-70
2023/10/27 02:40:50;;;;;;;;;;;17.30;75.90;;;;;;5092282;28;20403;-70
2023/10/27 02:43:15;;;;;;;;;;;17.30;76.10;;;;;;5091558;28;19912;-70
2023/10/27 02:45:42;;;;;;;;;;;17.30;76.20;;;;;;5092808;28;19942;-70
2023/10/27 02:48:08;;;;;;;;;;;17.30;76.10;;;;;;5092522;28;19969;-70
2023/10/27 02:50:34;;;;;;;;;;;17.30;76.20;;;;;;5092075;28;20393;-70
2023/10/27 02:52:59;;;;;;;;;;;17.30;76.10;;;;;;5092683;28;19931;-70
2023/10/27 02:55:25;;;;;;;;;;;17.30;76.20;;;;;;5091271;28;20002;-70
2023/10/27 02:57:51;;;;;;;;;;;17.20;76.20;;;;;;5093859;28;20395;-69
2023/10/27 03:00:19;;;;;;;;;;;17.20;76.30;;;;;;5096350;28;19972;-70
2023/10/27 03:02:45;;;;;;;;;;;17.20;75.80;;;;;;5095437;28;19931;-70
2023/10/27 03:05:10;;;;;;;;;;;17.10;76.50;;;;;;5095289;28;20011;-70
2023/10/27 03:07:37;;;;;;;;;;;17.10;76.50;;;;;;5095007;28;19927;-70
2023/10/27 03:10:03;;;;;;;;;;;17.20;76.40;;;;;;5095365;28;20014;-70
2023/10/27 03:12:29;;;;;;;;;;;17.20;76.50;;;;;;5077643;28;19978;-70
2023/10/27 03:14:56;;;;;;;;;;;17.10;76.60;;;;;;5096418;28;19919;-70
2023/10/27 03:17:21;;;;;;;;;;;17.20;76.50;;;;;;5096495;28;19976;-70
2023/10/27 03:19:49;;;;;;;;;;;17.10;76.40;;;;;;5094901;28;19911;-70
2023/10/27 03:22:15;;;;;;;;;;;17.20;76.30;;;;;;5094490;28;20341;-70
2023/10/27 03:24:40;;;;;;;;;;;17.10;76.60;;;;;;5094989;28;20007;-69
2023/10/27 03:27:06;;;;;;;;;;;17.20;76.70;;;;;;5096303;28;19927;-70
2023/10/27 03:29:32;;;;;;;;;;;17.10;76.70;;;;;;5096028;28;20358;-69
2023/10/27 03:31:58;;;;;;;;;;;17.10;76.80;;;;;;5095612;28;19927;-70
2023/10/27 03:34:24;;;;;;;;;;;17.10;76.80;;;;;;5095940;28;20014;-70
2023/10/27 03:36:50;;;;;;;;;;;17.10;76.70;;;;;;5094359;28;20002;-70
2023/10/27 03:39:16;;;;;;;;;;;17.10;76.80;;;;;;5094730;28;20376;-69
2023/10/27 03:41:42;;;;;;;;;;;17.10;76.70;;;;;;5095475;28;19920;-70
2023/10/27 03:44:09;;;;;;;;;;;17.10;76.80;;;;;;5111428;28;19918;-70
2023/10/27 03:46:34;;;;;;;;;;;17.10;76.70;;;;;;5094585;28;20335;-70
2023/10/27 03:49:01;;;;;;;;;;;17.10;76.70;;;;;;5095564;28;19912;-69
2023/10/27 03:51:26;;;;;;;;;;;17.10;76.10;;;;;;5095262;28;19931;-70
2023/10/27 03:53:54;;;;;;;;;;;17.10;76.70;;;;;;5095472;28;20002;-70
2023/10/27 03:56:20;;;;;;;;;;;17.00;76.90;;;;;;5095650;28;20018;-69
2023/10/27 03:58:46;;;;;;;;;;;17.00;77.00;;;;;;5095429;28;19912;-70
2023/10/27 04:01:12;;;;;;;;;;;16.90;77.30;;;;;;5094905;28;20372;-70
2023/10/27 04:03:38;;;;;;;;;;;17.00;77.40;;;;;;5077386;28;19916;-70
2023/10/27 04:06:04;;;;;;;;;;;16.90;77.50;;;;;;5093927;28;19920;-70
2023/10/27 04:08:31;;;;;;;;;;;16.90;77.40;;;;;;5093820;28;19977;-70
2023/10/27 04:10:57;;;;;;;;;;;16.90;78.20;;;;;;5094659;28;19927;-69
2023/10/27 04:13:23;;;;;;;;;;;16.80;76.70;;;;;;5093944;28;19942;-70
2023/10/27 04:15:49;;;;;;;;;;;16.80;77.50;;;;;;5093969;28;19926;-69
2023/10/27 04:18:15;;;;;;;;;;;16.80;77.50;;;;;;5094816;28;20015;-70
2023/10/27 04:20:41;;;;;;;;;;;16.80;77.40;;;;;;5093343;28;20007;-70
2023/10/27 04:23:07;;;;;;;;;;;16.80;77.20;;;;;;5094935;28;20006;-70
2023/10/27 04:25:35;;;;;;;;;;;16.80;77.20;;;;;;5095122;28;19957;-69
2023/10/27 04:28:03;;;;;;;;;;;16.90;77.30;;;;;;5093738;28;20339;-70
2023/10/27 04:30:31;;;;;;;;;;;16.90;76.60;;;;;;5093311;28;19920;-70
2023/10/27 04:32:57;;;;;;;;;;;16.90;76.70;;;;;;5093637;28;19926;-70
2023/10/27 04:35:23;;;;;;;;;;;16.90;77.20;;;;;;5094603;28;19912;-69
2023/10/27 04:37:50;;;;;;;;;;;16.90;77.10;;;;;;5093092;28;19959;-70
2023/10/27 04:40:16;;;;;;;;;;;16.90;77.20;;;;;;5093018;28;19919;-70
2023/10/27 04:42:42;;;;;;;;;;;16.90;76.60;;;;;;5093367;28;19919;-69
2023/10/27 04:45:08;;;;;;;;;;;16.90;77.40;;;;;;5076336;28;19920;-70
2023/10/27 04:47:34;;;;;;;;;;;16.90;76.70;;;;;;5076493;28;20452;-70
2023/10/27 04:50:00;;;;;;;;;;;16.90;77.40;;;;;;5093244;28;20019;-70
2023/10/27 04:52:26;;;;;;;;;;;16.90;78.30;;;;;;5098538;28;20035;-70
2023/10/27 04:54:53;;;;;;;;;;;16.90;77.40;;;;;;5095631;28;19965;-70
2023/10/27 04:57:19;;;;;;;;;;;16.90;77.20;;;;;;5093146;28;19997;-70
2023/10/27 04:59:45;;;;;;;;;;;16.90;77.30;;;;;;5093201;28;19912;-70
2023/10/27 05:02:12;;;;;;;;;;;16.90;77.30;;;;;;5099331;28;19920;-70
2023/10/27 05:04:37;;;;;;;;;;;16.90;77.50;;;;;;5114916;28;19922;-70
2023/10/27 05:07:05;;;;;;;;;;;16.90;77.70;;;;;;5114426;28;20014;-70
2023/10/27 05:09:32;;;;;;;;;;;16.80;77.80;;;;;;5113446;28;19916;-70
2023/10/27 05:11:58;;;;;;;;;;;16.80;77.80;;;;;;5112667;28;19920;-70
2023/10/27 05:14:24;;;;;;;;;;;16.80;78.10;;;;;;5113485;28;19912;-69
2023/10/27 05:16:50;;;;;;;;;;;16.80;78.10;;;;;;5096239;28;19923;-70
2023/10/27 05:19:16;;;;;;;;;;;16.80;78.50;;;;;;5114086;28;19918;-70
2023/10/27 05:21:42;;;;;;;;;;;16.80;78.50;;;;;;5113615;28;20266;-70
2023/10/27 05:24:09;;;;;;;;;;;16.70;78.50;;;;;;5114319;28;20026;-70
2023/10/27 05:26:35;;;;;;;;;;;16.70;78.10;;;;;;5113014;28;20006;-69
2023/10/27 05:29:01;;;;;;;;;;;16.70;78.60;;;;;;5112943;28;19985;-70
2023/10/27 05:31:27;;;;;;;;;;;16.70;78.50;;;;;;5112281;28;20265;-70
2023/10/27 05:33:53;;;;;;;;;;;16.80;78.30;;;;;;5113948;27;20002;-70
2023/10/27 05:36:18;;;;;;;;;;;16.70;78.60;;;;;;5114049;28;20014;-70
2023/10/27 05:38:44;;;;;;;;;;;16.70;79.00;;;;;;5113672;28;19965;-70
2023/10/27 05:41:10;;;;;;;;;;;16.70;79.10;;;;;;5112076;28;19956;-71
2023/10/27 05:43:36;;;;;;;;;;;16.70;79.10;;;;;;5112951;28;19955;-70
2023/10/27 05:46:02;;;;;;;;;;;16.80;79.30;;;;;;5113701;28;20014;-70
2023/10/27 05:48:28;;;;;;;;;;;16.80;79.60;;;;;;5112579;28;20291;-69
2023/10/27 05:50:54;;;;;;;;;;;16.80;80.20;;;;;;5113352;28;20011;-70
2023/10/27 05:53:19;;;;;;;;;;;16.80;80.50;;;;;;5112547;28;20006;-70
2023/10/27 05:55:45;;;;;;;;;;;16.80;80.60;;;;;;5112421;28;19927;-70
2023/10/27 05:58:11;;;;;;;;;;;16.80;80.90;;;;;;5112417;28;19912;-70
2023/10/27 06:00:38;;;;;;;;;;;16.80;81.00;;;;;;5106889;28;20014;-70
2023/10/27 06:03:03;;;;;;;;;;;16.80;81.10;;;;;;5112286;28;19922;-70
2023/10/27 06:05:29;;;;;;;;;;;16.80;81.40;;;;;;5112045;28;20091;-70
2023/10/27 06:07:55;;;;;;;;;;;16.80;81.80;;;;;;5111793;28;19927;-70
2023/10/27 06:10:21;;;;;;;;;;;16.80;82.10;;;;;;5111775;28;19918;-70
2023/10/27 06:12:47;;;;;;;;;;;16.80;82.30;;;;;;5112637;28;19969;-70
2023/10/27 06:15:13;;;;;;;;;;;16.90;82.50;;;;;;5111805;28;19959;-70
2023/10/27 06:17:39;;;;;;;;;;;16.90;83.10;;;;;;5106568;28;19916;-70
2023/10/27 06:20:06;;;;;;;;;;;17.00;83.30;;;;;;5096280;28;19915;-70
2023/10/27 06:22:31;;;;;;;;;;;17.00;83.60;;;;;;5111803;28;20310;-70
2023/10/27 06:24:57;;;;;;;;;;;17.00;84.20;;;;;;5107486;28;19964;-70
2023/10/27 06:27:24;;;;;;;;;;;17.10;85.10;;;;;;5091776;28;20014;-70
2023/10/27 06:29:50;;;;;;;;;;;17.20;85.40;;;;;;5094871;28;19920;-70
2023/10/27 06:32:16;;;;;;;;;;;17.20;85.90;;;;;;5114917;28;19973;-70
2023/10/27 06:34:42;;;;;;;;;;;17.20;86.70;;;;;;5111305;28;19912;-70
2023/10/27 06:37:08;;;;;;;;;;;17.30;86.60;;;;;;5095479;28;19977;-70
2023/10/27 06:39:34;;;;;;;;;;;17.30;87.30;;;;;;5095721;28;20322;-70
2023/10/27 06:42:00;;;;;;;;;;;17.30;87.10;;;;;;5096674;28;19963;-70
2023/10/27 06:44:27;;;;;;;;;;;17.30;87.90;;;;;;5095729;28;19912;-70
2023/10/27 06:46:53;;;;;;;;;;;17.30;88.00;;;;;;5096610;28;20273;-70
2023/10/27 06:49:19;;;;;;;;;;;17.30;88.10;;;;;;5095440;28;19919;-70
2023/10/27 06:51:47;;;;;;;;;;;17.40;88.40;;;;;;5096982;28;19920;-70
2023/10/27 06:54:14;;;;;;;;;;;17.40;88.30;;;;;;5112720;28;19922;-70
2023/10/27 06:56:39;;;;;;;;;;;17.40;88.30;;;;;;5115655;28;19919;-70
2023/10/27 06:59:05;;;;;;;;;;;17.50;88.40;;;;;;5117038;27;19960;-70
2023/10/27 07:01:31;;;;;;;;;;;17.60;87.90;;;;;;5098175;28;19919;-70
2023/10/27 07:03:58;;;;;;;;;;;17.60;87.60;;;;;;5115635;28;19912;-70
2023/10/27 07:06:25;;;;;;;;;;;17.60;87.30;;;;;;5110308;28;20375;-70
2023/10/27 07:08:50;;;;;;;;;;;17.60;87.00;;;;;;5102144;28;19915;-70
2023/10/27 07:11:16;;;;;;;;;;;17.70;87.00;;;;;;5116473;28;20002;-70
2023/10/27 07:13:42;;;;;;;;;;;17.70;87.00;;;;;;5116737;28;19919;-70
2023/10/27 07:16:08;;;;;;;;;;;17.80;86.80;;;;;;5106351;28;19920;-70
2023/10/27 07:18:34;;;;;;;;;;;17.80;86.80;;;;;;5098585;28;20357;-70
2023/10/27 07:21:00;;;;;;;;;;;17.90;86.70;;;;;;5097482;28;20362;-70
2023/10/27 07:23:28;;;;;;;;;;;17.90;86.60;;;;;;5115397;28;19912;-70
2023/10/27 07:25:54;;;;;;;;;;;17.90;86.70;;;;;;5110037;28;19920;-70
2023/10/27 07:28:20;;;;;;;;;;;18.00;86.70;;;;;;5108431;28;19915;-70
2023/10/27 07:30:46;;;;;;;;;;;18.00;86.80;;;;;;5114628;28;19942;-70
2023/10/27 07:33:13;;;;;;;;;;;18.00;86.90;;;;;;5096093;28;19951;-70
2023/10/27 07:35:39;;;;;;;;;;;18.10;86.90;;;;;;5095993;28;19920;-70
2023/10/27 07:38:05;;;;;;;;;;;18.10;86.00;;;;;;5095533;28;19922;-70
2023/10/27 07:40:34;;;;;;;;;;;18.20;86.40;;;;;;5097791;28;19924;-70
2023/10/27 07:43:00;;;;;;;;;;;18.20;86.30;;;;;;5104013;28;20341;-70
2023/10/27 07:45:26;;;;;;;;;;;18.20;86.20;;;;;;5111964;28;19920;-70
2023/10/27 07:47:52;;;;;;;;;;;18.30;86.30;;;;;;5094255;28;20343;-70
2023/10/27 07:50:18;;;;;;;;;;;18.40;85.80;;;;;;5093793;28;19912;-70
2023/10/27 07:52:45;;;;;;;;;;;18.50;85.10;;;;;;5095680;28;20423;-70
2023/10/27 07:55:11;;;;;;;;;;;18.50;85.50;;;;;;5094507;28;20384;-70
2023/10/27 07:57:37;;;;;;;;;;;18.50;85.80;;;;;;5108770;28;19923;-70
2023/10/27 08:00:04;;;;;;;;;;;18.50;86.00;;;;;;5113239;28;19915;-71
2023/10/27 08:02:33;;;;;;;;;;;18.50;85.90;;;;;;5115834;28;19915;-70
2023/10/27 08:04:59;;;;;;;;;;;18.50;86.30;;;;;;5114619;28;20382;-70
2023/10/27 08:07:25;;;;;;;;;;;18.50;85.60;;;;;;5114194;28;20291;-70
2023/10/27 08:09:51;;;;;;;;;;;18.50;86.30;;;;;;5115818;28;19960;-70
2023/10/27 08:12:17;;;;;;;;;;;18.50;86.40;;;;;;5113965;28;20002;-70
2023/10/27 08:14:44;;;;;;;;;;;18.50;86.60;;;;;;5115945;28;19915;-70
2023/10/27 08:17:10;;;;;;;;;;;18.50;86.80;;;;;;5114968;28;19923;-70
2023/10/27 08:19:36;;;;;;;;;;;18.40;86.80;;;;;;5097116;28;19912;-70
2023/10/27 08:22:02;;;;;;;;;;;18.40;86.90;;;;;;5096706;28;19982;-70
2023/10/27 08:24:28;;;;;;;;;;;18.40;86.90;;;;;;5114198;28;19915;-70
2023/10/27 08:26:53;;;;;;;;;;;18.40;86.80;;;;;;5115481;28;20018;-70
2023/10/27 08:29:19;;;;;;;;;;;18.40;86.90;;;;;;5115420;28;20390;-70
2023/10/27 08:31:45;;;;;;;;;;;18.40;86.70;;;;;;5113449;28;20014;-70
2023/10/27 08:34:11;;;;;;;;;;;18.40;86.80;;;;;;5103636;28;20383;-70
2023/10/27 08:36:38;;;;;;;;;;;18.30;86.80;;;;;;5094837;28;19926;-71
2023/10/27 08:39:04;;;;;;;;;;;18.40;86.50;;;;;;5093263;28;19912;-70
2023/10/27 08:41:30;;;;;;;;;;;18.40;86.40;;;;;;5109781;28;19947;-70
2023/10/27 08:43:57;;;;;;;;;;;18.40;86.50;;;;;;5110385;28;19912;-70
2023/10/27 08:46:24;;;;;;;;;;;18.30;86.30;;;;;;5114063;28;20339;-70
2023/10/27 08:48:50;;;;;;;;;;;18.40;86.30;;;;;;5114809;28;19923;-70
2023/10/27 08:51:16;;;;;;;;;;;18.40;86.30;;;;;;5113619;28;20022;-70
2023/10/27 08:53:43;;;;;;;;;;;18.40;86.00;;;;;;5113797;28;19955;-70
2023/10/27 08:56:12;;;;;;;;;;;18.50;86.10;;;;;;5112677;28;20390;-70
2023/10/27 08:58:40;;;;;;;;;;;18.60;85.70;;;;;;5114670;28;19937;-70
2023/10/27 09:01:06;;;;;;;;;;;18.80;85.20;;;;;;5095529;28;19924;-70
2023/10/27 09:03:32;;;;;;;;;;;19.00;84.80;;;;;;5113813;28;19956;-71
2023/10/27 09:05:58;;;;;;;;;;;19.30;84.20;;;;;;5114457;28;20407;-70
2023/10/27 09:08:24;;;;;;;;;;;19.60;83.50;;;;;;5102084;28;20330;-70
2023/10/27 09:10:50;;;;;;;;;;;19.70;82.80;;;;;;5096148;28;20376;-70
2023/10/27 09:13:53;;;;;;;;;;;19.80;81.60;;;;;;5105276;28;20408;-70
2023/10/27 09:16:43;;;;;;;;;;;20.10;81.40;;;;;;5100603;28;19924;-70
2023/10/27 09:19:28;;;;;;;;;;;20.40;80.60;;;;;;5112421;28;19912;-70
2023/10/27 09:21:54;;;;;;;;;;;20.60;80.20;;;;;;5112368;28;20285;-70
2023/10/27 09:24:39;;;;;;;;;;;20.80;78.90;;;;;;5095350;28;19911;-70
2023/10/27 09:27:05;;;;;;;;;;;20.90;78.80;;;;;;5114548;28;19919;-70
2023/10/27 09:29:51;;;;;;;;;;;21.00;78.60;;;;;;5113007;28;20010;-70
2023/10/27 09:32:41;;;;;;;;;;;21.00;77.60;;;;;;5112476;28;20002;-69
2023/10/27 09:35:09;;;;;;;;;;;21.10;76.40;;;;;;5093731;28;19912;-70
2023/10/27 09:37:37;;;;;;;;;;;21.10;75.50;;;;;;5092089;28;19920;-70
2023/10/27 09:40:08;;;;;;;;;;;21.20;74.80;;;;;;5107349;28;19916;-70
2023/10/27 09:42:37;;;;;;;;;;;21.30;74.70;;;;;;5096933;28;19946;-69
2023/10/27 09:45:07;;;;;;;;;;;21.40;74.60;;;;;;5093627;28;19912;-70
2023/10/27 09:47:35;;;;;;;;;;;21.60;74.00;;;;;;5093863;28;19919;-70
2023/10/27 09:50:08;;;;;;;;;;;21.50;72.80;;;;;;5109143;28;20457;-70
2023/10/27 09:52:34;;;;;;;;;;;21.40;73.10;;;;;;5092033;28;19927;-70
2023/10/27 09:55:19;;;;;;;;;;;21.40;73.70;;;;;;5109340;28;20352;-70
2023/10/27 09:57:46;;;;;;;;;;;21.30;73.10;;;;;;5091968;28;19920;-70
2023/10/27 10:00:15;;;;;;;;;;;21.10;73.70;;;;;;5123697;27;19912;-70
2023/10/27 10:02:42;;;;;;;;;;;21.00;73.80;;;;;;5092118;28;19946;-70
2023/10/27 10:05:09;;;;;;;;;;;21.00;73.90;;;;;;5091882;28;20014;-70
2023/10/27 10:07:38;;;;;;;;;;;21.00;74.20;;;;;;5125799;27;19931;-70
2023/10/27 10:13:12;;;;;;;;;;;20.90;74.70;;;;;;5120976;27;19927;-70
2023/10/27 10:15:46;;;;;;;;;;;20.90;74.70;;;;;;5107799;28;19950;-70
2023/10/27 10:18:21;;;;;;;;;;;20.90;74.80;;;;;;5091600;28;19912;-70
2023/10/27 10:20:52;;;;;;;;;;;20.90;74.90;;;;;;5095694;28;19920;-70
2023/10/27 10:23:19;;;;;;;;;;;20.90;74.90;;;;;;5092371;28;19912;-70
2023/10/27 10:26:04;;;;;;;;;;;20.80;75.50;;;;;;5074575;28;19920;-70
2023/10/27 10:28:36;;;;;;;;;;;20.50;77.70;;;;;;5091682;28;20014;-71
2023/10/27 10:31:21;;;;;;;;;;;20.20;78.80;;;;;;5092329;28;19927;-71
2023/10/27 10:33:48;;;;;;;;;;;19.90;78.20;;;;;;5101818;28;19923;-70
2023/10/27 10:36:24;;;;;;;;;;;19.50;77.30;;;;;;5113153;28;20280;-70
2023/10/27 10:38:53;;;;;;;;;;;19.20;76.10;;;;;;5112981;28;19925;-70
2023/10/27 10:41:19;;;;;;;;;;;19.00;77.00;;;;;;5112852;28;20405;-70
2023/10/27 10:44:24;;;;;;;;;;;18.90;75.70;;;;;;5113255;28;19961;-70
2023/10/27 10:46:50;;;;;;;;;;;18.80;75.00;;;;;;5111791;28;19919;-70
2023/10/27 10:49:36;;;;;;;;;;;18.60;75.30;;;;;;5109126;28;19922;-70
2023/10/27 10:52:02;;;;;;;;;;;18.50;76.00;;;;;;5107420;28;19916;-70
2023/10/27 10:54:48;;;;;;;;;;;18.40;77.20;;;;;;5108471;28;19916;-70
2023/10/27 10:57:19;;;;;;;;;;;18.30;77.40;;;;;;5108145;28;19916;-70
2023/10/27 11:00:04;;;;;;;;;;;18.30;77.70;;;;;;5108195;28;19923;-70
2023/10/27 11:02:30;;;;;;;;;;;18.40;77.80;;;;;;5090929;28;19924;-70
2023/10/27 11:04:57;;;;;;;;;;;18.50;77.80;;;;;;5091389;28;20019;-70
2023/10/27 11:07:23;;;;;;;;;;;18.60;77.00;;;;;;5099767;28;20275;-70
2023/10/27 11:09:49;;;;;;;;;;;18.70;77.40;;;;;;5095104;28;19912;-70
2023/10/27 11:12:33;;;;;;;;;;;18.80;77.20;;;;;;5081757;28;20339;-70
2023/10/27 11:14:59;;;;;;;;;;;19.00;76.70;;;;;;5092747;28;19911;-70
2023/10/27 11:17:25;;;;;;;;;;;19.30;76.50;;;;;;5092314;28;19997;-70
2023/10/27 11:20:10;;;;;;;;;;;19.60;75.90;;;;;;5078970;28;19919;-70
2023/10/27 11:22:36;;;;;;;;;;;19.80;75.10;;;;;;5108506;28;19968;-70
2023/10/27 11:25:02;;;;;;;;;;;20.30;74.60;;;;;;5106057;28;19912;-70
2023/10/27 11:27:28;;;;;;;;;;;20.70;73.60;;;;;;5096098;28;19962;-70
2023/10/27 11:30:14;;;;;;;;;;;20.90;72.90;;;;;;5094885;28;20010;-70
2023/10/27 11:32:40;;;;;;;;;;;21.10;71.50;;;;;;5101885;28;20006;-70
2023/10/27 11:35:06;;;;;;;;;;;21.00;70.60;;;;;;5116766;28;20287;-70
2023/10/27 11:37:32;;;;;;;;;;;21.00;70.70;;;;;;5114463;28;19954;-70
2023/10/27 11:40:13;;;;;;;;;;;21.10;69.70;;;;;;5116031;28;19938;-70
2023/10/27 11:42:39;;;;;;;;;;;21.10;69.40;;;;;;5111459;28;20003;-71
2023/10/27 11:45:05;;;;;;;;;;;21.50;68.90;;;;;;5096336;28;20355;-70
2023/10/27 11:47:31;;;;;;;;;;;22.00;66.10;;;;;;5095660;28;19927;-70
2023/10/27 11:49:57;;;;;;;;;;;22.40;65.80;;;;;;5095793;28;20006;-70
2023/10/27 11:52:22;;;;;;;;;;;22.50;65.50;;;;;;5095181;28;19966;-70
2023/10/27 11:54:48;;;;;;;;;;;23.00;64.10;;;;;;5095674;28;20011;-70
2023/10/27 11:57:14;;;;;;;;;;;23.40;61.70;;;;;;5077983;28;19962;-70
2023/10/27 11:59:40;;;;;;;;;;;23.40;61.90;;;;;;5111033;28;19939;-70
2023/10/27 12:02:06;;;;;;;;;;;23.60;62.00;;;;;;5110674;28;20066;-70
2023/10/27 12:04:32;;;;;;;;;;;23.80;61.10;;;;;;5115196;28;19915;-70
2023/10/27 12:06:58;;;;;;;;;;;24.10;61.00;;;;;;5115838;28;20015;-70
2023/10/27 12:09:23;;;;;;;;;;;24.20;60.30;;;;;;5089329;28;19995;-70
2023/10/27 12:11:50;;;;;;;;;;;24.50;59.90;;;;;;5094947;28;20334;-70
2023/10/27 12:14:16;;;;;;;;;;;24.70;59.50;;;;;;5097652;28;19911;-70
2023/10/27 12:16:42;;;;;;;;;;;24.50;58.70;;;;;;5115843;28;19987;-70
2023/10/27 12:19:09;;;;;;;;;;;24.60;57.10;;;;;;5113844;28;20296;-70
2023/10/27 12:21:35;;;;;;;;;;;24.50;57.80;;;;;;5115188;28;19959;-70
2023/10/27 12:24:01;;;;;;;;;;;24.50;57.80;;;;;;5115161;28;20003;-70
2023/10/27 12:26:27;;;;;;;;;;;24.40;57.80;;;;;;5115569;28;19926;-70
2023/10/27 12:28:53;;;;;;;;;;;24.50;57.80;;;;;;5113505;28;20287;-70
2023/10/27 12:31:19;;;;;;;;;;;25.20;56.20;;;;;;5109621;28;20038;-70
2023/10/27 12:33:45;;;;;;;;;;;26.50;53.60;;;;;;5092167;28;19919;-70
2023/10/27 12:36:12;;;;;;;;;;;27.50;49.30;;;;;;5115051;28;20368;-70
2023/10/27 12:38:38;;;;;;;;;;;26.70;50.10;;;;;;5113697;28;19920;-70
2023/10/27 12:41:05;;;;;;;;;;;25.80;50.60;;;;;;5096153;28;19962;-70
2023/10/27 12:43:31;;;;;;;;;;;25.10;51.20;;;;;;5115497;28;19923;-70
2023/10/27 12:46:00;;;;;;;;;;;24.60;53.80;;;;;;5113721;28;19969;-70
2023/10/27 12:48:26;;;;;;;;;;;24.20;55.00;;;;;;5092410;28;19918;-70
2023/10/27 12:50:52;;;;;;;;;;;23.90;55.80;;;;;;5092662;28;19920;-70
2023/10/27 12:53:18;;;;;;;;;;;23.80;56.00;;;;;;5093185;28;19999;-70
2023/10/27 12:55:44;;;;;;;;;;;23.70;55.30;;;;;;5092995;28;20023;-70
2023/10/27 12:58:10;;;;;;;;;;;23.60;54.80;;;;;;5094230;28;20006;-70
2023/10/27 13:00:36;;;;;;;;;;;23.50;55.20;;;;;;5093914;28;19995;-70
2023/10/27 13:03:02;;;;;;;;;;;23.30;54.70;;;;;;5101297;28;19915;-70
2023/10/27 13:05:29;;;;;;;;;;;23.00;54.20;;;;;;5113719;28;19927;-70
2023/10/27 13:07:56;;;;;;;;;;;22.50;54.90;;;;;;5113099;28;20364;-70
2023/10/27 13:10:25;;;;;;;;;;;22.10;53.70;;;;;;5112859;28;19956;-70
2023/10/27 13:12:56;;;;;;;;;;;21.90;55.20;;;;;;5096562;28;19924;-70
2023/10/27 13:15:22;;;;;;;;;;;21.60;53.90;;;;;;5113294;28;19915;-70
2023/10/27 13:17:48;;;;;;;;;;;21.40;53.20;;;;;;5112957;28;19980;-70
2023/10/27 13:20:14;;;;;;;;;;;21.20;53.80;;;;;;5113714;28;20397;-71
2023/10/27 13:22:41;;;;;;;;;;;21.10;54.10;;;;;;5112465;28;19922;-70
2023/10/27 13:25:08;;;;;;;;;;;20.90;53.70;;;;;;5112985;28;20365;-70
2023/10/27 13:27:35;;;;;;;;;;;20.90;53.50;;;;;;5108276;28;19938;-70
2023/10/27 13:30:04;;;;;;;;;;;20.90;54.00;;;;;;5075561;28;19962;-70
2023/10/27 13:32:31;;;;;;;;;;;20.90;53.40;;;;;;5093255;28;20358;-70
2023/10/27 13:34:57;;;;;;;;;;;20.90;53.80;;;;;;5095945;28;19916;-71
2023/10/27 13:37:24;;;;;;;;;;;20.70;52.30;;;;;;5092014;28;19916;-70
2023/10/27 13:39:50;;;;;;;;;;;20.70;52.80;;;;;;5096177;28;19919;-70
2023/10/27 13:42:16;;;;;;;;;;;21.50;51.10;;;;;;5091692;28;20331;-70
2023/10/27 13:44:42;;;;;;;;;;;21.50;51.30;;;;;;5126609;27;19950;-70
2023/10/27 13:49:55;;;;;;;;;;;22.00;49.80;;;;;;5093539;28;19950;-70
2023/10/27 13:52:21;;;;;;;;;;;22.50;48.30;;;;;;5091552;28;20323;-70
2023/10/27 13:54:47;;;;;;;;;;;21.90;48.90;;;;;;5093529;28;19916;-70
2023/10/27 13:57:14;;;;;;;;;;;21.50;50.40;;;;;;5103957;28;20347;-70
2023/10/27 13:59:40;;;;;;;;;;;21.30;51.20;;;;;;5095523;28;20388;-70
2023/10/27 14:02:06;;;;;;;;;;;21.10;52.00;;;;;;5111835;28;20413;-70
2023/10/27 14:04:32;;;;;;;;;;;20.90;52.30;;;;;;5112502;28;19923;-70
2023/10/27 14:06:58;;;;;;;;;;;20.80;52.70;;;;;;5113624;28;20385;-70
2023/10/27 14:09:29;;;;;;;;;;;20.60;53.20;;;;;;5113623;28;19920;-70
2023/10/27 14:11:56;;;;;;;;;;;20.50;53.40;;;;;;5112038;28;19916;-70
2023/10/27 14:14:23;;;;;;;;;;;20.40;53.10;;;;;;5111557;28;20376;-70
2023/10/27 14:16:49;;;;;;;;;;;20.30;53.30;;;;;;5112254;28;19920;-70
2023/10/27 14:19:15;;;;;;;;;;;20.30;52.60;;;;;;5113437;28;20380;-70
2023/10/27 14:21:43;;;;;;;;;;;20.30;52.10;;;;;;5113029;28;19919;-70